Time;durP1;ratioP1;P1;durP2;ratioP2;P2;SDS_P1;SDS_P2;PMS_P1;PMS_P2;Temp;Humidity;BMP_temperature;BMP_pressure;BME280_temperature;BME280_humidity;BME280_pressure;Samples;Min_cycle;Max_cycle;Signal;HPM_P1;HPM_P2
2021/09/26 00:00:44;;;;;;;4.43;4.00;;;14.60;99.90;;;;;;5048282;28;20229;-68
2021/09/26 00:03:09;;;;;;;6.25;4.15;;;14.50;99.90;;;;;;5047261;28;20193;-71
2021/09/26 00:05:35;;;;;;;6.13;4.03;;;14.40;99.90;;;;;;5048489;28;20239;-70
2021/09/26 00:08:00;;;;;;;4.93;3.85;;;14.30;99.90;;;;;;5045873;28;20557;-69
2021/09/26 00:10:26;;;;;;;5.88;4.35;;;14.20;99.90;;;;;;5045391;28;20186;-69
2021/09/26 00:12:52;;;;;;;4.63;4.13;;;14.20;99.90;;;;;;5044031;28;20210;-72
2021/09/26 00:15:20;;;;;;;5.10;4.38;;;14.10;99.90;;;;;;5045415;28;20193;-70
2021/09/26 00:17:47;;;;;;;6.93;4.28;;;14.10;99.90;;;;;;5048019;28;20182;-71
2021/09/26 00:20:15;;;;;;;4.85;4.20;;;14.00;99.90;;;;;;5045101;28;20262;-69
2021/09/26 00:22:41;;;;;;;6.22;4.57;;;13.90;99.90;;;;;;5049686;28;20208;-70
2021/09/26 00:25:08;;;;;;;7.57;4.80;;;13.90;99.90;;;;;;5047998;28;20218;-70
2021/09/26 00:27:33;;;;;;;6.47;4.30;;;13.80;99.90;;;;;;5054191;28;20189;-69
2021/09/26 00:29:59;;;;;;;6.65;4.20;;;13.80;99.90;;;;;;5048417;28;20197;-70
2021/09/26 00:32:24;;;;;;;5.13;4.63;;;13.80;99.90;;;;;;5044343;28;20301;-68
2021/09/26 00:34:50;;;;;;;5.50;4.88;;;13.80;99.90;;;;;;5045040;28;20662;-71
2021/09/26 00:37:16;;;;;;;6.63;5.40;;;13.80;99.90;;;;;;5047487;28;20182;-68
2021/09/26 00:39:42;;;;;;;5.82;4.53;;;13.70;99.90;;;;;;5044947;28;20232;-69
2021/09/26 00:42:08;;;;;;;6.18;4.65;;;13.70;99.90;;;;;;5044751;28;20247;-67
2021/09/26 00:44:34;;;;;;;6.78;4.90;;;13.70;99.90;;;;;;5047409;28;20179;-69
2021/09/26 00:46:59;;;;;;;6.00;4.85;;;13.70;99.90;;;;;;5044797;28;20182;-69
2021/09/26 00:49:25;;;;;;;5.03;4.47;;;13.70;99.90;;;;;;5048219;28;20185;-69
2021/09/26 00:51:52;;;;;;;6.85;4.50;;;13.70;99.90;;;;;;5048548;28;20606;-67
2021/09/26 00:54:18;;;;;;;9.60;4.63;;;13.70;99.90;;;;;;5045666;28;20193;-70
2021/09/26 00:56:50;;;;;;;7.75;5.32;;;13.70;99.90;;;;;;5049739;28;20174;-69
2021/09/26 00:59:19;;;;;;;5.97;5.22;;;13.60;99.90;;;;;;5049738;28;20186;-70
2021/09/26 01:01:47;;;;;;;7.45;6.25;;;13.60;99.90;;;;;;5046983;28;20214;-70
2021/09/26 01:04:13;;;;;;;6.72;6.00;;;13.60;99.90;;;;;;5051402;28;20224;-69
2021/09/26 01:07:05;;;;;;;7.45;5.93;;;13.60;99.90;;;;;;5051368;28;20600;-70
2021/09/26 01:09:39;;;;;;;6.75;5.22;;;13.60;99.90;;;;;;5044130;28;20182;-71
2021/09/26 01:12:19;;;;;;;5.35;4.85;;;13.50;99.90;;;;;;5043765;28;20279;-70
2021/09/26 01:15:11;;;;;;;5.20;4.57;;;13.50;99.90;;;;;;5044636;28;20535;-69
2021/09/26 01:17:40;;;;;;;6.45;4.78;;;13.50;99.90;;;;;;5047089;28;20174;-70
2021/09/26 01:20:32;;;;;;;6.45;4.70;;;13.40;99.90;;;;;;5047963;28;20203;-69
2021/09/26 01:23:00;;;;;;;5.40;4.47;;;13.40;99.90;;;;;;5038493;28;20537;-67
2021/09/26 01:25:57;;;;;;;9.85;5.18;;;13.30;99.90;;;;;;5050929;28;20208;-70
2021/09/26 01:28:42;;;;;;;5.80;4.97;;;13.30;99.90;;;;;;5044204;28;20676;-69
2021/09/26 01:31:11;;;;;;;7.03;4.93;;;13.20;99.90;;;;;;5043685;28;20226;-70
2021/09/26 01:33:51;;;;;;;6.50;5.40;;;13.20;99.90;;;;;;5050339;28;20635;-70
2021/09/26 01:36:17;;;;;;;7.97;6.03;;;13.10;99.90;;;;;;5044008;28;20178;-69
2021/09/26 01:38:58;;;;;;;6.85;4.95;;;13.00;99.90;;;;;;5044315;28;20664;-71
2021/09/26 01:41:49;;;;;;;7.97;5.35;;;12.90;99.90;;;;;;5044897;28;20206;-68
2021/09/26 01:44:50;;;;;;;6.53;5.68;;;12.90;99.90;;;;;;5044897;28;20210;-72
2021/09/26 01:47:20;;;;;;;7.13;6.00;;;12.90;99.90;;;;;;5046829;28;20178;-71
2021/09/26 01:49:50;;;;;;;6.22;5.60;;;12.90;99.90;;;;;;5043734;28;20258;-69
2021/09/26 01:52:23;;;;;;;8.48;6.72;;;12.90;99.90;;;;;;5050410;28;20305;-68
2021/09/26 01:54:49;;;;;;;8.30;5.72;;;13.00;99.90;;;;;;5052744;28;20178;-72
2021/09/26 01:57:20;;;;;;;8.13;5.53;;;13.00;99.90;;;;;;5045084;28;20182;-70
2021/09/26 01:59:57;;;;;;;7.85;5.68;;;13.00;99.90;;;;;;5035557;28;20613;-70
2021/09/26 02:02:24;;;;;;;7.55;5.90;;;13.00;99.90;;;;;;5052010;28;20660;-68
2021/09/26 02:04:53;;;;;;;6.10;5.50;;;13.00;99.90;;;;;;5033114;28;20178;-68
2021/09/26 02:07:20;;;;;;;6.03;4.90;;;13.10;99.90;;;;;;5050347;28;20365;-68
2021/09/26 02:09:47;;;;;;;6.72;5.10;;;13.00;99.90;;;;;;5044165;28;20182;-70
2021/09/26 02:12:14;;;;;;;7.10;5.43;;;13.10;99.90;;;;;;5047109;28;20229;-70
2021/09/26 02:14:41;;;;;;;6.93;5.78;;;13.00;99.90;;;;;;5046060;28;20646;-69
2021/09/26 02:17:09;;;;;;;7.90;6.53;;;13.00;99.90;;;;;;5043491;28;20201;-70
2021/09/26 02:19:36;;;;;;;8.65;6.78;;;13.00;99.90;;;;;;5043453;28;20633;-69
2021/09/26 02:22:07;;;;;;;7.80;6.43;;;13.00;99.90;;;;;;5045453;28;20202;-68
2021/09/26 02:24:34;;;;;;;9.10;7.15;;;12.80;99.90;;;;;;5043175;28;20178;-71
2021/09/26 02:27:00;;;;;;;9.40;7.63;;;12.70;99.90;;;;;;5043286;28;20368;-70
2021/09/26 02:29:26;;;;;;;8.23;6.35;;;12.60;99.90;;;;;;5043999;28;20205;-68
2021/09/26 02:31:52;;;;;;;9.73;6.97;;;12.60;99.90;;;;;;5044885;28;20891;-72
2021/09/26 02:34:17;;;;;;;7.80;6.50;;;12.50;99.90;;;;;;5048872;28;20189;-71
2021/09/26 02:36:43;;;;;;;9.20;7.18;;;12.50;99.90;;;;;;5046294;28;20182;-66
2021/09/26 02:39:11;;;;;;;10.32;7.10;;;12.40;99.90;;;;;;5058284;28;20182;-70
2021/09/26 02:41:54;;;;;;;9.05;6.82;;;12.30;99.90;;;;;;5033626;28;20198;-70
2021/09/26 02:44:46;;;;;;;6.97;6.15;;;12.40;99.90;;;;;;5054583;28;20699;-69
2021/09/26 02:47:17;;;;;;;8.40;6.22;;;12.40;99.90;;;;;;5047183;28;20690;-68
2021/09/26 02:49:43;;;;;;;8.00;6.45;;;12.40;99.90;;;;;;5046936;28;20166;-69
2021/09/26 02:52:10;;;;;;;7.70;6.28;;;12.40;99.90;;;;;;5057902;28;20224;-71
2021/09/26 02:54:39;;;;;;;8.57;6.65;;;12.30;99.90;;;;;;5056554;28;20180;-68
2021/09/26 02:57:06;;;;;;;7.35;6.20;;;12.40;99.90;;;;;;5046939;28;20201;-69
2021/09/26 02:59:33;;;;;;;7.55;6.18;;;12.40;99.90;;;;;;5046843;28;20630;-68
2021/09/26 03:01:58;;;;;;;8.52;6.30;;;12.40;99.90;;;;;;5049924;28;20263;-72
2021/09/26 03:04:24;;;;;;;7.03;6.30;;;12.30;99.90;;;;;;5046935;28;20543;-67
2021/09/26 03:06:50;;;;;;;8.90;6.72;;;12.40;99.90;;;;;;5046790;28;20221;-70
2021/09/26 03:09:16;;;;;;;8.45;6.13;;;12.40;99.90;;;;;;5047201;28;20658;-69
2021/09/26 03:11:42;;;;;;;8.65;6.43;;;12.40;99.90;;;;;;5053977;28;20205;-68
2021/09/26 03:14:07;;;;;;;7.95;6.97;;;12.40;99.90;;;;;;5055739;28;20592;-67
2021/09/26 03:16:33;;;;;;;8.60;6.72;;;12.30;99.90;;;;;;5047815;28;20556;-70
2021/09/26 03:18:59;;;;;;;9.15;7.00;;;12.40;99.90;;;;;;5046695;28;20213;-70
2021/09/26 03:21:27;;;;;;;8.90;6.80;;;12.40;99.90;;;;;;5045760;28;20279;-68
2021/09/26 03:23:53;;;;;;;6.97;5.63;;;12.30;99.90;;;;;;5053057;28;20185;-70
2021/09/26 03:26:19;;;;;;;7.70;6.47;;;12.30;99.90;;;;;;5046632;28;20542;-70
2021/09/26 03:28:45;;;;;;;13.93;6.75;;;12.30;99.90;;;;;;5049078;28;20193;-70
2021/09/26 03:31:10;;;;;;;7.60;6.45;;;12.30;99.90;;;;;;5053708;28;20213;-69
2021/09/26 03:33:36;;;;;;;8.05;6.03;;;12.20;99.90;;;;;;5050006;28;20289;-70
2021/09/26 03:36:01;;;;;;;8.90;6.65;;;12.20;99.90;;;;;;5055159;28;20182;-66
2021/09/26 03:38:27;;;;;;;6.88;5.68;;;12.20;99.90;;;;;;5052242;28;20193;-69
2021/09/26 03:40:52;;;;;;;8.85;6.18;;;12.20;99.90;;;;;;5053559;28;20617;-68
2021/09/26 03:43:18;;;;;;;7.70;6.00;;;12.20;99.90;;;;;;5049143;28;20213;-69
2021/09/26 03:45:50;;;;;;;8.00;6.45;;;12.20;99.90;;;;;;5046730;28;20687;-68
2021/09/26 03:48:17;;;;;;;9.30;6.40;;;12.10;99.90;;;;;;5047128;28;20736;-68
2021/09/26 03:50:43;;;;;;;7.70;6.63;;;12.10;99.90;;;;;;5048889;28;20657;-70
2021/09/26 03:53:08;;;;;;;7.65;6.13;;;12.20;99.90;;;;;;5045338;28;20197;-69
2021/09/26 03:55:34;;;;;;;8.48;6.45;;;12.20;99.90;;;;;;5046190;28;20235;-67
2021/09/26 03:57:59;;;;;;;9.63;6.50;;;12.10;99.90;;;;;;5049598;28;20182;-68
2021/09/26 04:00:25;;;;;;;10.35;6.97;;;12.10;99.90;;;;;;5045669;28;20182;-69
2021/09/26 04:02:51;;;;;;;7.80;6.10;;;12.20;99.90;;;;;;5045214;28;20262;-71
2021/09/26 04:05:16;;;;;;;10.40;7.30;;;12.20;99.90;;;;;;5050310;28;20190;-70
2021/09/26 04:07:42;;;;;;;8.20;6.95;;;12.20;99.90;;;;;;5048569;28;20186;-70
2021/09/26 04:10:08;;;;;;;8.88;7.18;;;12.20;99.90;;;;;;5047664;28;20263;-69
2021/09/26 04:12:34;;;;;;;10.00;7.13;;;12.20;99.90;;;;;;5050668;28;20217;-69
2021/09/26 04:15:00;;;;;;;7.90;6.57;;;12.10;99.90;;;;;;5051130;28;20326;-68
2021/09/26 04:17:26;;;;;;;8.95;7.07;;;12.10;99.90;;;;;;5051628;28;20217;-69
2021/09/26 04:19:51;;;;;;;9.45;7.22;;;12.10;99.90;;;;;;5033989;28;20185;-69
2021/09/26 04:22:17;;;;;;;9.20;7.25;;;12.00;99.90;;;;;;5051137;28;20824;-67
2021/09/26 04:24:42;;;;;;;8.52;6.80;;;12.00;99.90;;;;;;5045451;28;20213;-68
2021/09/26 04:27:08;;;;;;;10.15;7.00;;;12.00;99.90;;;;;;5053394;28;20207;-70
2021/09/26 04:29:34;;;;;;;9.70;7.90;;;12.00;99.90;;;;;;5056053;28;20182;-69
2021/09/26 04:31:59;;;;;;;10.05;8.05;;;12.00;99.90;;;;;;5046313;28;20905;-70
2021/09/26 04:34:26;;;;;;;11.07;8.35;;;12.00;99.90;;;;;;5050412;28;20273;-69
2021/09/26 04:36:53;;;;;;;10.75;7.60;;;12.20;99.90;;;;;;5032625;28;20201;-71
2021/09/26 04:39:19;;;;;;;10.70;8.40;;;12.20;99.90;;;;;;5045730;28;20660;-70
2021/09/26 04:41:45;;;;;;;10.45;8.02;;;12.20;99.90;;;;;;5049319;28;20240;-69
2021/09/26 04:44:10;;;;;;;9.85;7.13;;;12.20;99.90;;;;;;5047003;28;20492;-70
2021/09/26 04:46:36;;;;;;;12.20;7.82;;;12.20;99.90;;;;;;5049183;28;20204;-71
2021/09/26 04:49:01;;;;;;;11.77;7.90;;;12.20;99.90;;;;;;5044873;28;20656;-71
2021/09/26 04:51:27;;;;;;;10.93;8.52;;;12.20;99.90;;;;;;5052355;28;20209;-68
2021/09/26 04:53:52;;;;;;;13.25;8.27;;;12.30;99.90;;;;;;5026373;28;20699;-70
2021/09/26 04:56:18;;;;;;;10.63;8.57;;;12.30;99.90;;;;;;5044863;28;20197;-71
2021/09/26 04:58:44;;;;;;;12.20;8.68;;;12.40;99.90;;;;;;5046684;28;20419;-72
2021/09/26 05:01:10;;;;;;;11.10;8.45;;;12.40;99.90;;;;;;5051468;28;20663;-69
2021/09/26 05:03:35;;;;;;;11.07;8.75;;;12.40;99.90;;;;;;5043969;28;20201;-70
2021/09/26 05:06:01;;;;;;;14.73;9.00;;;12.50;99.90;;;;;;5044598;28;20189;-70
2021/09/26 05:08:27;;;;;;;12.07;9.32;;;12.50;99.90;;;;;;5051073;28;20182;-71
2021/09/26 05:10:52;;;;;;;14.50;9.25;;;12.50;99.90;;;;;;5051728;28;20206;-69
2021/09/26 05:13:18;;;;;;;12.23;9.95;;;12.60;99.90;;;;;;5025759;28;20347;-69
2021/09/26 05:15:43;;;;;;;12.68;9.60;;;12.60;99.90;;;;;;5044422;28;20190;-70
2021/09/26 05:18:09;;;;;;;15.30;11.07;;;12.70;99.90;;;;;;5048650;28;20182;-67
2021/09/26 05:20:35;;;;;;;15.00;11.07;;;12.70;99.90;;;;;;5044011;28;21248;-71
2021/09/26 05:23:00;;;;;;;14.27;10.98;;;12.80;99.90;;;;;;5046128;28;20581;-70
2021/09/26 05:25:27;;;;;;;14.27;10.98;;;12.90;99.90;;;;;;5046895;28;20182;-71
2021/09/26 05:27:52;;;;;;;14.18;10.63;;;12.90;99.90;;;;;;5048557;28;20186;-67
2021/09/26 05:30:18;;;;;;;16.23;10.75;;;13.00;99.90;;;;;;5044562;28;20388;-67
2021/09/26 05:32:44;;;;;;;16.80;11.63;;;13.10;99.90;;;;;;5051374;28;20678;-71
2021/09/26 05:35:10;;;;;;;15.07;11.25;;;13.20;99.90;;;;;;5058041;28;20178;-71
2021/09/26 05:37:35;;;;;;;18.35;11.95;;;13.20;99.90;;;;;;5044159;28;20182;-71
2021/09/26 05:40:02;;;;;;;16.17;12.18;;;13.20;99.90;;;;;;5050386;28;20189;-69
2021/09/26 05:42:28;;;;;;;14.70;11.40;;;13.30;99.90;;;;;;5043430;28;20469;-70
2021/09/26 05:44:53;;;;;;;16.52;12.13;;;13.30;99.90;;;;;;5046759;28;20189;-67
2021/09/26 05:47:19;;;;;;;16.83;12.45;;;13.50;99.90;;;;;;5051326;28;20252;-70
2021/09/26 05:49:44;;;;;;;17.48;12.82;;;13.50;99.90;;;;;;5045753;28;20262;-68
2021/09/26 05:52:10;;;;;;;19.02;13.15;;;13.60;99.90;;;;;;5042698;28;20807;-69
2021/09/26 05:54:38;;;;;;;17.95;13.70;;;13.70;99.90;;;;;;5044065;28;20182;-69
2021/09/26 05:57:05;;;;;;;18.60;14.13;;;13.70;99.90;;;;;;5043735;28;20178;-69
2021/09/26 05:59:36;;;;;;;21.23;14.90;;;13.80;99.90;;;;;;5047954;28;20613;-69
2021/09/26 06:02:02;;;;;;;20.45;14.45;;;13.80;99.90;;;;;;5047584;28;20213;-68
2021/09/26 06:04:27;;;;;;;17.90;14.68;;;13.90;99.90;;;;;;5049423;28;20698;-68
2021/09/26 06:06:53;;;;;;;22.23;15.57;;;14.00;99.90;;;;;;5050610;28;20916;-69
2021/09/26 06:09:18;;;;;;;23.35;16.17;;;14.00;99.90;;;;;;5043779;28;20198;-71
2021/09/26 06:11:44;;;;;;;20.85;15.43;;;14.10;99.90;;;;;;5029516;28;20539;-70
2021/09/26 06:14:09;;;;;;;21.00;16.13;;;14.20;99.90;;;;;;5050017;28;20213;-68
2021/09/26 06:16:35;;;;;;;20.45;16.55;;;14.30;99.90;;;;;;5025618;28;20186;-68
2021/09/26 06:19:01;;;;;;;21.20;16.33;;;14.30;99.90;;;;;;5043157;28;20193;-71
2021/09/26 06:21:26;;;;;;;24.00;16.65;;;14.40;99.90;;;;;;5039243;28;20212;-72
2021/09/26 06:23:52;;;;;;;24.10;17.13;;;14.50;99.90;;;;;;5045348;28;20664;-70
2021/09/26 06:26:19;;;;;;;22.38;17.15;;;14.60;99.90;;;;;;5031858;28;20185;-68
2021/09/26 06:28:45;;;;;;;22.85;16.67;;;14.70;99.90;;;;;;5043903;28;20214;-66
2021/09/26 06:31:12;;;;;;;26.48;17.02;;;14.80;99.90;;;;;;5050336;28;20275;-71
2021/09/26 06:33:40;;;;;;;21.92;17.05;;;14.90;99.90;;;;;;5042145;28;20208;-69
2021/09/26 06:36:07;;;;;;;22.25;16.60;;;15.10;99.90;;;;;;5045931;28;20254;-69
2021/09/26 06:38:32;;;;;;;22.02;17.17;;;15.20;99.90;;;;;;5047169;28;20212;-71
2021/09/26 06:40:58;;;;;;;21.10;17.05;;;15.30;99.90;;;;;;5048453;28;20198;-71
2021/09/26 06:43:24;;;;;;;21.92;17.15;;;15.40;99.90;;;;;;5031709;28;20686;-70
2021/09/26 06:45:49;;;;;;;19.52;16.52;;;15.50;99.90;;;;;;5042863;28;20197;-71
2021/09/26 06:48:15;;;;;;;20.23;17.55;;;15.70;99.90;;;;;;5047954;28;20182;-71
2021/09/26 06:50:41;;;;;;;20.95;17.92;;;15.90;99.90;;;;;;5057822;28;20262;-71
2021/09/26 06:53:07;;;;;;;20.92;17.35;;;16.10;99.90;;;;;;5042809;28;20206;-69
2021/09/26 06:55:32;;;;;;;20.25;16.80;;;16.30;99.90;;;;;;5048550;28;20193;-70
2021/09/26 06:57:58;;;;;;;21.85;17.00;;;16.60;99.90;;;;;;5045773;28;20630;-68
2021/09/26 07:00:23;;;;;;;21.77;17.55;;;16.80;99.90;;;;;;5051402;28;20182;-71
2021/09/26 07:02:51;;;;;;;19.80;16.70;;;16.90;99.90;;;;;;5053098;28;20205;-67
2021/09/26 07:05:17;;;;;;;19.92;16.75;;;17.10;99.90;;;;;;5043381;28;20213;-70
2021/09/26 07:07:44;;;;;;;17.70;15.80;;;17.30;99.90;;;;;;5042950;28;20653;-69
2021/09/26 07:10:10;;;;;;;18.75;15.45;;;17.40;99.90;;;;;;5042958;28;20216;-70
2021/09/26 07:12:36;;;;;;;16.83;14.63;;;17.50;99.90;;;;;;5043086;28;20228;-68
2021/09/26 07:15:02;;;;;;;17.08;14.35;;;17.60;99.90;;;;;;5024656;28;20646;-69
2021/09/26 07:17:30;;;;;;;15.57;13.00;;;17.70;99.90;;;;;;5046407;28;20209;-69
2021/09/26 07:19:56;;;;;;;15.38;13.20;;;17.90;99.90;;;;;;5042394;28;20206;-69
2021/09/26 07:22:25;;;;;;;15.40;13.07;;;17.80;99.90;;;;;;5051473;28;20205;-67
2021/09/26 07:24:52;;;;;;;15.18;12.88;;;17.70;99.90;;;;;;5045599;28;20182;-70
2021/09/26 07:27:19;;;;;;;15.20;13.32;;;17.60;99.90;;;;;;5050139;28;20182;-70
2021/09/26 07:29:45;;;;;;;17.33;13.48;;;17.50;99.90;;;;;;5047697;28;20178;-68
2021/09/26 07:32:12;;;;;;;16.77;13.82;;;17.40;99.90;;;;;;5044788;28;20229;-71
2021/09/26 07:34:38;;;;;;;18.88;12.70;;;17.40;99.90;;;;;;5048165;28;20615;-68
2021/09/26 07:37:04;;;;;;;14.50;12.68;;;17.40;99.90;;;;;;5048626;28;20177;-68
2021/09/26 07:39:29;;;;;;;20.92;13.27;;;17.40;99.90;;;;;;5048981;28;20185;-70
2021/09/26 07:41:55;;;;;;;16.85;14.30;;;17.40;99.90;;;;;;5054073;28;20205;-68
2021/09/26 07:44:20;;;;;;;15.50;13.63;;;17.40;99.90;;;;;;5046461;28;20269;-70
2021/09/26 07:46:46;;;;;;;16.17;14.13;;;17.30;99.90;;;;;;5046222;28;20185;-72
2021/09/26 07:49:12;;;;;;;17.77;14.73;;;17.30;99.90;;;;;;5045836;28;20182;-69
2021/09/26 07:51:38;;;;;;;16.67;14.60;;;17.20;99.90;;;;;;5046832;28;20722;-70
2021/09/26 07:54:04;;;;;;;20.30;14.10;;;17.30;99.90;;;;;;5051389;28;20199;-67
2021/09/26 07:56:30;;;;;;;16.70;14.23;;;17.40;99.90;;;;;;5049681;28;20675;-70
2021/09/26 07:58:56;;;;;;;16.10;13.65;;;17.40;99.90;;;;;;5031835;28;20179;-70
2021/09/26 08:01:22;;;;;;;17.63;14.35;;;17.50;99.90;;;;;;5046427;28;20372;-70
2021/09/26 08:03:47;;;;;;;16.40;13.77;;;17.50;99.90;;;;;;5045957;28;20641;-69
2021/09/26 08:06:14;;;;;;;16.27;13.65;;;17.60;99.90;;;;;;5054769;28;20201;-70
2021/09/26 08:08:40;;;;;;;15.88;13.43;;;17.80;99.90;;;;;;5045902;28;20182;-69
2021/09/26 08:11:06;;;;;;;15.85;13.93;;;17.90;99.90;;;;;;5048211;28;20255;-70
2021/09/26 08:13:31;;;;;;;15.20;12.73;;;18.00;99.90;;;;;;5044866;28;20199;-69
2021/09/26 08:15:57;;;;;;;14.43;12.27;;;18.30;99.90;;;;;;5051604;28;20182;-68
2021/09/26 08:18:22;;;;;;;13.60;12.13;;;18.40;99.90;;;;;;5052999;28;20186;-70
2021/09/26 08:20:48;;;;;;;13.10;11.38;;;18.60;99.90;;;;;;5045282;28;20198;-70
2021/09/26 08:23:14;;;;;;;13.02;11.60;;;18.70;99.90;;;;;;5050099;28;20233;-70
2021/09/26 08:25:39;;;;;;;13.88;12.38;;;19.00;99.90;;;;;;5047821;28;20182;-69
2021/09/26 08:28:05;;;;;;;13.80;11.48;;;19.00;99.90;;;;;;5047930;28;20189;-70
2021/09/26 08:30:31;;;;;;;13.02;11.73;;;19.00;99.90;;;;;;5046728;28;20209;-72
2021/09/26 08:32:57;;;;;;;12.00;10.80;;;19.00;99.90;;;;;;5047888;28;20237;-70
2021/09/26 08:35:23;;;;;;;11.98;10.73;;;19.10;99.90;;;;;;5053777;28;20667;-70
2021/09/26 08:37:49;;;;;;;11.73;10.15;;;19.30;99.90;;;;;;5045266;28;20209;-69
2021/09/26 08:40:15;;;;;;;10.57;9.48;;;19.60;99.90;;;;;;5046381;28;20174;-68
2021/09/26 08:42:41;;;;;;;10.68;9.38;;;19.70;99.90;;;;;;5045449;28;20740;-70
2021/09/26 08:45:10;;;;;;;11.68;9.32;;;19.90;99.90;;;;;;5045155;28;20190;-71
2021/09/26 08:47:39;;;;;;;10.82;9.65;;;20.10;99.90;;;;;;5045104;28;20186;-70
2021/09/26 08:50:07;;;;;;;10.23;8.98;;;20.10;99.90;;;;;;5044851;28;20304;-71
2021/09/26 08:52:33;;;;;;;9.82;8.60;;;20.20;99.90;;;;;;5044353;28;20193;-71
2021/09/26 08:54:58;;;;;;;9.45;8.55;;;20.30;99.90;;;;;;5046084;28;20533;-68
2021/09/26 08:57:25;;;;;;;10.13;8.75;;;20.40;99.90;;;;;;5044859;28;20179;-72
2021/09/26 08:59:51;;;;;;;9.18;8.27;;;20.50;99.90;;;;;;5044480;28;20644;-71
2021/09/26 09:02:16;;;;;;;9.82;7.90;;;20.50;99.90;;;;;;5048475;28;20250;-71
2021/09/26 09:04:42;;;;;;;10.38;8.70;;;20.60;99.90;;;;;;5044827;28;20717;-72
2021/09/26 09:07:10;;;;;;;8.63;7.65;;;20.70;99.90;;;;;;5044509;28;20186;-71
2021/09/26 09:09:56;;;;;;;9.50;7.93;;;20.80;99.90;;;;;;5044503;28;20197;-69
2021/09/26 09:12:31;;;;;;;8.93;7.60;;;20.90;99.90;;;;;;5043765;28;20275;-68
2021/09/26 09:15:00;;;;;;;7.50;6.68;;;21.10;99.90;;;;;;5044543;28;20688;-70
2021/09/26 09:17:34;;;;;;;7.05;6.00;;;21.30;99.90;;;;;;5046153;28;20228;-70
2021/09/26 09:20:13;;;;;;;7.50;6.25;;;21.40;99.90;;;;;;5051926;28;20274;-71
2021/09/26 09:22:41;;;;;;;6.90;6.30;;;21.40;99.90;;;;;;5047012;28;20189;-69
2021/09/26 09:25:08;;;;;;;6.93;5.65;;;21.60;99.90;;;;;;5052548;28;20309;-68
2021/09/26 09:27:34;;;;;;;6.35;5.75;;;21.60;99.90;;;;;;5051489;28;20405;-68
2021/09/26 09:30:03;;;;;;;5.80;5.20;;;21.80;99.90;;;;;;5044290;28;20186;-67
2021/09/26 09:32:29;;;;;;;6.18;5.55;;;21.90;99.90;;;;;;5043011;28;20300;-68
2021/09/26 09:34:54;;;;;;;7.38;5.45;;;22.00;99.90;;;;;;5044075;28;20186;-67
2021/09/26 09:37:27;;;;;;;7.60;5.47;;;22.00;99.90;;;;;;5044104;28;20236;-69
2021/09/26 09:40:18;;;;;;;6.80;5.40;;;22.10;99.90;;;;;;5043990;28;20178;-66
2021/09/26 09:42:46;;;;;;;6.75;5.38;;;22.00;99.90;;;;;;5049163;28;20178;-68
2021/09/26 09:45:31;;;;;;;7.40;5.35;;;21.90;99.90;;;;;;5047509;28;20245;-68
2021/09/26 09:47:59;;;;;;;5.95;5.35;;;22.10;99.90;;;;;;5043745;28;20254;-69
2021/09/26 09:50:33;;;;;;;6.72;4.93;;;21.90;99.90;;;;;;5051175;28;20182;-68
2021/09/26 09:53:00;;;;;;;5.47;4.57;;;22.10;99.90;;;;;;5043144;28;20297;-69
2021/09/26 09:55:28;;;;;;;5.05;4.45;;;22.20;99.90;;;;;;5048585;28;20186;-70
2021/09/26 09:58:14;;;;;;;5.30;4.80;;;22.30;99.90;;;;;;5043880;28;20175;-69
2021/09/26 10:01:13;;;;;;;5.32;4.80;;;22.20;99.90;;;;;;5031755;28;20205;-67
2021/09/26 10:03:55;;;;;;;5.90;4.22;;;22.50;99.90;;;;;;5031769;28;20194;-66
2021/09/26 10:06:42;;;;;;;4.72;4.22;;;22.50;99.90;;;;;;5043581;28;20229;-69
2021/09/26 10:09:25;;;;;;;5.80;5.18;;;22.60;99.90;;;;;;5028161;28;20178;-69
2021/09/26 10:11:52;;;;;;;5.32;3.80;;;22.70;99.90;;;;;;5042705;28;20212;-70
2021/09/26 10:14:19;;;;;;;5.55;3.60;;;22.80;99.90;;;;;;5046174;28;20184;-72
2021/09/26 10:16:45;;;;;;;9.07;4.00;;;22.70;99.90;;;;;;5049100;28;20178;-69
2021/09/26 10:19:11;;;;;;;4.00;3.63;;;22.80;99.90;;;;;;5043135;28;20269;-70
2021/09/26 10:21:39;;;;;;;5.15;3.80;;;23.10;99.90;;;;;;5034474;28;20699;-69
2021/09/26 10:24:06;;;;;;;3.92;3.60;;;23.10;99.90;;;;;;5043454;28;20182;-71
2021/09/26 10:26:31;;;;;;;8.18;4.50;;;23.20;99.90;;;;;;5048464;28;20303;-71
2021/09/26 10:28:58;;;;;;;6.38;4.10;;;23.10;99.90;;;;;;5041836;28;20190;-69
2021/09/26 10:31:28;;;;;;;10.68;5.32;;;23.20;99.90;;;;;;5048327;28;20226;-69
2021/09/26 10:33:57;;;;;;;22.88;5.75;;;23.20;99.90;;;;;;5048339;28;20229;-70
2021/09/26 10:36:24;;;;;;;11.30;5.10;;;23.30;99.90;;;;;;5042817;28;20178;-69
2021/09/26 10:38:52;;;;;;;12.35;5.53;;;23.30;99.90;;;;;;5043654;28;20758;-70
2021/09/26 10:41:18;;;;;;;9.48;4.68;;;23.30;99.90;;;;;;5044341;28;20308;-70
2021/09/26 10:43:45;;;;;;;20.85;5.53;;;23.30;99.90;;;;;;5042114;28;20228;-68
2021/09/26 10:46:25;;;;;;;11.75;4.93;;;23.50;99.90;;;;;;5042709;28;20278;-67
2021/09/26 10:49:10;;;;;;;12.73;5.35;;;23.60;99.90;;;;;;5042580;28;20684;-66
2021/09/26 10:51:53;;;;;;;9.98;4.97;;;23.60;99.90;;;;;;5042526;28;20320;-70
2021/09/26 10:54:24;;;;;;;14.52;5.82;;;23.70;99.90;;;;;;5015343;28;20551;-69
2021/09/26 10:56:53;;;;;;;20.27;5.63;;;23.70;99.90;;;;;;5044430;28;20184;-70
2021/09/26 10:59:19;;;;;;;12.95;4.72;;;23.80;99.90;;;;;;5046842;28;20214;-67
2021/09/26 11:01:45;;;;;;;17.60;4.65;;;24.00;99.90;;;;;;5045050;28;20202;-66
2021/09/26 11:04:14;;;;;;;19.58;5.55;;;24.20;99.90;;;;;;5046686;28;20660;-69
2021/09/26 11:06:42;;;;;;;8.50;4.38;;;24.20;99.90;;;;;;5046757;28;20190;-70
2021/09/26 11:09:10;;;;;;;6.85;5.28;;;24.20;99.90;;;;;;5048010;28;20261;-69
2021/09/26 11:11:39;;;;;;;20.98;5.75;;;24.20;99.90;;;;;;5046156;28;20202;-71
2021/09/26 11:14:07;;;;;;;15.55;5.30;;;24.20;99.90;;;;;;5046530;28;20206;-67
2021/09/26 11:16:49;;;;;;;18.95;5.18;;;24.40;99.90;;;;;;5046277;28;20182;-66
2021/09/26 11:19:16;;;;;;;11.48;4.90;;;24.50;99.90;;;;;;5053402;28;20236;-67
2021/09/26 11:21:46;;;;;;;11.20;4.28;;;24.60;99.90;;;;;;5027863;28;20202;-67
2021/09/26 11:24:32;;;;;;;12.02;5.22;;;24.80;99.90;;;;;;5046467;28;20185;-68
2021/09/26 11:27:13;;;;;;;20.50;5.55;;;24.80;99.90;;;;;;5046176;28;20201;-69
2021/09/26 11:29:39;;;;;;;23.08;4.93;;;24.70;99.90;;;;;;5046196;28;20173;-68
2021/09/26 11:32:08;;;;;;;18.55;4.70;;;24.90;99.90;;;;;;5045654;28;20581;-68
2021/09/26 11:34:36;;;;;;;6.05;4.05;;;25.00;99.90;;;;;;5049640;28;20186;-68
2021/09/26 11:37:03;;;;;;;4.80;4.22;;;25.10;99.90;;;;;;5046193;28;20178;-69
2021/09/26 11:39:30;;;;;;;7.93;4.05;;;24.70;99.90;;;;;;5046273;28;20189;-70
2021/09/26 11:41:56;;;;;;;7.72;3.85;;;24.90;99.90;;;;;;5049998;28;20202;-67
2021/09/26 11:44:22;;;;;;;10.63;4.00;;;24.90;99.90;;;;;;5045894;28;20261;-70
2021/09/26 11:46:50;;;;;;;4.40;4.00;;;25.00;99.90;;;;;;5050662;28;20235;-68
2021/09/26 11:49:17;;;;;;;3.65;3.35;;;25.10;99.90;;;;;;5048065;28;20676;-68
2021/09/26 11:51:44;;;;;;;3.80;3.50;;;25.20;99.90;;;;;;5051097;28;20249;-68
2021/09/26 11:54:11;;;;;;;5.95;4.00;;;25.20;99.90;;;;;;5046097;28;20695;-67
2021/09/26 11:56:39;;;;;;;5.57;3.92;;;25.30;99.90;;;;;;5046012;28;20180;-68
2021/09/26 11:59:09;;;;;;;5.00;3.97;;;25.40;99.90;;;;;;5045974;28;20184;-69
2021/09/26 12:01:36;;;;;;;3.70;3.20;;;25.50;99.90;;;;;;5051139;28;20722;-68
2021/09/26 12:04:09;;;;;;;3.15;2.95;;;25.50;99.90;;;;;;5050751;28;20193;-69
2021/09/26 12:06:36;;;;;;;9.43;3.55;;;25.40;99.90;;;;;;5052262;28;20187;-67
2021/09/26 12:09:04;;;;;;;3.83;3.13;;;25.40;99.90;;;;;;5027354;28;20390;-70
2021/09/26 12:11:29;;;;;;;5.88;3.58;;;25.60;99.90;;;;;;5043414;28;20218;-70
2021/09/26 12:13:56;;;;;;;4.72;3.35;;;25.60;99.90;;;;;;5049525;28;20210;-69
2021/09/26 12:16:24;;;;;;;5.07;3.42;;;25.60;99.90;;;;;;5045753;28;20185;-69
2021/09/26 12:18:52;;;;;;;4.03;3.63;;;25.70;99.90;;;;;;5051642;28;20638;-70
2021/09/26 12:21:19;;;;;;;4.45;3.35;;;25.80;99.90;;;;;;5048560;28;20256;-70
2021/09/26 12:24:05;;;;;;;6.72;3.45;;;25.80;99.90;;;;;;5044577;28;20195;-68
2021/09/26 12:26:40;;;;;;;5.45;3.30;;;25.80;99.90;;;;;;5045499;28;20186;-66
2021/09/26 12:29:23;;;;;;;3.35;3.05;;;25.90;99.90;;;;;;5049629;28;20185;-69
2021/09/26 12:31:54;;;;;;;3.90;3.60;;;26.00;99.90;;;;;;5054331;28;20263;-67
2021/09/26 12:34:28;;;;;;;5.28;3.38;;;26.00;99.90;;;;;;5048634;28;20273;-71
2021/09/26 12:36:54;;;;;;;3.47;3.17;;;25.80;99.90;;;;;;5051707;28;20179;-70
2021/09/26 12:39:28;;;;;;;4.75;3.53;;;26.00;99.90;;;;;;5045020;28;20323;-69
2021/09/26 12:41:55;;;;;;;12.38;3.83;;;26.20;99.90;;;;;;5045090;28;20194;-69
2021/09/26 12:44:38;;;;;;;9.20;3.60;;;26.50;99.90;;;;;;5052694;28;20174;-68
2021/09/26 12:47:14;;;;;;;8.05;3.30;;;26.60;99.90;;;;;;5046842;28;20304;-66